sensor_id;sensor_type;location;lat;lon;timestamp;P1;durP1;ratioP1;P2;durP2;ratioP2
69890;SDS011;57170;43.964;21.262;2024-03-02T00:01:37;15.35;;;10.30;;
69890;SDS011;57170;43.964;21.262;2024-03-02T00:04:04;15.73;;;11.60;;
69890;SDS011;57170;43.964;21.262;2024-03-02T00:06:33;11.05;;;9.10;;
69890;SDS011;57170;43.964;21.262;2024-03-02T00:09:00;11.93;;;10.30;;
69890;SDS011;57170;43.964;21.262;2024-03-02T00:11:26;12.85;;;10.23;;
69890;SDS011;57170;43.964;21.262;2024-03-02T00:13:52;11.75;;;9.35;;
69890;SDS011;57170;43.964;21.262;2024-03-02T00:16:19;12.82;;;9.93;;
69890;SDS011;57170;43.964;21.262;2024-03-02T00:18:45;11.35;;;8.98;;
69890;SDS011;57170;43.964;21.262;2024-03-02T00:21:11;12.52;;;9.07;;
69890;SDS011;57170;43.964;21.262;2024-03-02T00:23:39;12.00;;;9.32;;
69890;SDS011;57170;43.964;21.262;2024-03-02T00:26:06;12.45;;;9.25;;
69890;SDS011;57170;43.964;21.262;2024-03-02T00:28:34;10.60;;;8.35;;
69890;SDS011;57170;43.964;21.262;2024-03-02T00:33:27;12.52;;;9.07;;
69890;SDS011;57170;43.964;21.262;2024-03-02T00:35:53;9.07;;;7.40;;
69890;SDS011;57170;43.964;21.262;2024-03-02T00:38:20;8.38;;;7.10;;
69890;SDS011;57170;43.964;21.262;2024-03-02T00:40:46;9.80;;;7.93;;
69890;SDS011;57170;43.964;21.262;2024-03-02T00:43:20;13.80;;;7.90;;
69890;SDS011;57170;43.964;21.262;2024-03-02T00:45:55;10.02;;;7.07;;
69890;SDS011;57170;43.964;21.262;2024-03-02T00:48:22;9.35;;;6.82;;
69890;SDS011;57170;43.964;21.262;2024-03-02T00:50:50;8.68;;;6.63;;
69890;SDS011;57170;43.964;21.262;2024-03-02T00:53:17;9.32;;;6.90;;
69890;SDS011;57170;43.964;21.262;2024-03-02T00:55:49;7.82;;;6.43;;
69890;SDS011;57170;43.964;21.262;2024-03-02T00:58:15;9.82;;;7.53;;
69890;SDS011;57170;43.964;21.262;2024-03-02T01:00:41;7.50;;;5.93;;
69890;SDS011;57170;43.964;21.262;2024-03-02T01:03:08;10.10;;;7.07;;
69890;SDS011;57170;43.964;21.262;2024-03-02T01:05:35;8.25;;;5.90;;
69890;SDS011;57170;43.964;21.262;2024-03-02T01:08:02;9.85;;;7.15;;
69890;SDS011;57170;43.964;21.262;2024-03-02T01:10:28;9.23;;;6.68;;
69890;SDS011;57170;43.964;21.262;2024-03-02T01:12:54;8.57;;;6.20;;
69890;SDS011;57170;43.964;21.262;2024-03-02T01:15:20;8.02;;;5.90;;
69890;SDS011;57170;43.964;21.262;2024-03-02T01:17:47;7.93;;;6.13;;
69890;SDS011;57170;43.964;21.262;2024-03-02T01:20:13;15.48;;;12.25;;
69890;SDS011;57170;43.964;21.262;2024-03-02T01:22:39;16.42;;;13.38;;
69890;SDS011;57170;43.964;21.262;2024-03-02T01:25:05;18.15;;;13.93;;
69890;SDS011;57170;43.964;21.262;2024-03-02T01:27:31;19.17;;;14.27;;
69890;SDS011;57170;43.964;21.262;2024-03-02T01:29:57;16.85;;;12.40;;
69890;SDS011;57170;43.964;21.262;2024-03-02T01:32:24;11.07;;;8.77;;
69890;SDS011;57170;43.964;21.262;2024-03-02T01:34:51;11.07;;;9.00;;
69890;SDS011;57170;43.964;21.262;2024-03-02T01:37:17;8.88;;;7.80;;
69890;SDS011;57170;43.964;21.262;2024-03-02T01:39:43;10.98;;;8.05;;
69890;SDS011;57170;43.964;21.262;2024-03-02T01:42:09;13.65;;;7.68;;
69890;SDS011;57170;43.964;21.262;2024-03-02T01:44:36;10.13;;;7.20;;
69890;SDS011;57170;43.964;21.262;2024-03-02T01:47:02;8.30;;;6.47;;
69890;SDS011;57170;43.964;21.262;2024-03-02T01:49:28;10.45;;;7.35;;
69890;SDS011;57170;43.964;21.262;2024-03-02T01:51:54;9.02;;;6.60;;
69890;SDS011;57170;43.964;21.262;2024-03-02T01:54:20;10.30;;;8.13;;
69890;SDS011;57170;43.964;21.262;2024-03-02T01:56:46;9.02;;;7.70;;
69890;SDS011;57170;43.964;21.262;2024-03-02T01:59:12;9.23;;;6.97;;
69890;SDS011;57170;43.964;21.262;2024-03-02T02:01:39;10.20;;;7.97;;
69890;SDS011;57170;43.964;21.262;2024-03-02T02:04:05;7.10;;;5.38;;
69890;SDS011;57170;43.964;21.262;2024-03-02T02:06:31;6.72;;;5.53;;
69890;SDS011;57170;43.964;21.262;2024-03-02T02:08:58;9.30;;;6.30;;
69890;SDS011;57170;43.964;21.262;2024-03-02T02:11:24;9.48;;;6.47;;
69890;SDS011;57170;43.964;21.262;2024-03-02T02:13:50;7.85;;;5.70;;
69890;SDS011;57170;43.964;21.262;2024-03-02T02:16:16;8.50;;;6.63;;
69890;SDS011;57170;43.964;21.262;2024-03-02T02:18:42;5.65;;;4.80;;
69890;SDS011;57170;43.964;21.262;2024-03-02T02:21:09;5.97;;;4.65;;
69890;SDS011;57170;43.964;21.262;2024-03-02T02:23:35;6.90;;;5.15;;
69890;SDS011;57170;43.964;21.262;2024-03-02T02:26:01;7.03;;;5.38;;
69890;SDS011;57170;43.964;21.262;2024-03-02T02:28:29;7.95;;;5.30;;
69890;SDS011;57170;43.964;21.262;2024-03-02T02:30:55;7.22;;;4.88;;
69890;SDS011;57170;43.964;21.262;2024-03-02T02:33:25;7.55;;;5.63;;
69890;SDS011;57170;43.964;21.262;2024-03-02T02:35:51;6.88;;;5.38;;
69890;SDS011;57170;43.964;21.262;2024-03-02T02:38:17;7.43;;;5.75;;
69890;SDS011;57170;43.964;21.262;2024-03-02T02:40:45;8.18;;;5.95;;
69890;SDS011;57170;43.964;21.262;2024-03-02T02:43:11;8.70;;;6.10;;
69890;SDS011;57170;43.964;21.262;2024-03-02T02:45:37;8.38;;;6.40;;
69890;SDS011;57170;43.964;21.262;2024-03-02T02:48:03;8.38;;;5.78;;
69890;SDS011;57170;43.964;21.262;2024-03-02T02:50:30;7.97;;;5.93;;
69890;SDS011;57170;43.964;21.262;2024-03-02T02:52:56;7.85;;;6.00;;
69890;SDS011;57170;43.964;21.262;2024-03-02T02:55:23;7.72;;;6.30;;
69890;SDS011;57170;43.964;21.262;2024-03-02T02:57:49;6.45;;;5.13;;
69890;SDS011;57170;43.964;21.262;2024-03-02T03:00:15;6.95;;;5.20;;
69890;SDS011;57170;43.964;21.262;2024-03-02T03:02:45;7.07;;;5.85;;
69890;SDS011;57170;43.964;21.262;2024-03-02T03:05:12;6.40;;;4.97;;
69890;SDS011;57170;43.964;21.262;2024-03-02T03:07:39;7.47;;;5.97;;
69890;SDS011;57170;43.964;21.262;2024-03-02T03:10:06;8.65;;;5.97;;
69890;SDS011;57170;43.964;21.262;2024-03-02T03:12:32;9.50;;;6.65;;
69890;SDS011;57170;43.964;21.262;2024-03-02T03:14:59;7.28;;;6.10;;
69890;SDS011;57170;43.964;21.262;2024-03-02T03:17:25;7.90;;;6.05;;
69890;SDS011;57170;43.964;21.262;2024-03-02T03:19:52;7.97;;;5.22;;
69890;SDS011;57170;43.964;21.262;2024-03-02T03:22:18;6.25;;;4.80;;
69890;SDS011;57170;43.964;21.262;2024-03-02T03:24:44;7.82;;;5.65;;
69890;SDS011;57170;43.964;21.262;2024-03-02T03:27:10;6.47;;;4.90;;
69890;SDS011;57170;43.964;21.262;2024-03-02T03:29:37;6.10;;;4.43;;
69890;SDS011;57170;43.964;21.262;2024-03-02T03:32:03;5.93;;;4.78;;
69890;SDS011;57170;43.964;21.262;2024-03-02T03:34:32;6.47;;;4.13;;
69890;SDS011;57170;43.964;21.262;2024-03-02T03:36:58;6.70;;;4.35;;
69890;SDS011;57170;43.964;21.262;2024-03-02T03:39:24;5.40;;;3.03;;
69890;SDS011;57170;43.964;21.262;2024-03-02T03:41:50;5.45;;;4.22;;
69890;SDS011;57170;43.964;21.262;2024-03-02T03:44:16;7.30;;;4.18;;
69890;SDS011;57170;43.964;21.262;2024-03-02T03:46:42;7.28;;;3.40;;
69890;SDS011;57170;43.964;21.262;2024-03-02T03:49:08;4.53;;;3.60;;
69890;SDS011;57170;43.964;21.262;2024-03-02T03:51:34;4.80;;;3.00;;
69890;SDS011;57170;43.964;21.262;2024-03-02T03:54:01;5.70;;;3.83;;
69890;SDS011;57170;43.964;21.262;2024-03-02T03:56:27;5.57;;;3.60;;
69890;SDS011;57170;43.964;21.262;2024-03-02T03:58:53;5.22;;;3.67;;
69890;SDS011;57170;43.964;21.262;2024-03-02T04:01:19;5.05;;;3.33;;
69890;SDS011;57170;43.964;21.262;2024-03-02T04:03:47;5.90;;;3.30;;
69890;SDS011;57170;43.964;21.262;2024-03-02T04:06:13;4.85;;;3.53;;
69890;SDS011;57170;43.964;21.262;2024-03-02T04:08:41;5.55;;;3.80;;
69890;SDS011;57170;43.964;21.262;2024-03-02T04:11:08;5.78;;;3.65;;
69890;SDS011;57170;43.964;21.262;2024-03-02T04:13:34;5.82;;;3.53;;
69890;SDS011;57170;43.964;21.262;2024-03-02T04:16:00;4.22;;;3.17;;
69890;SDS011;57170;43.964;21.262;2024-03-02T04:18:26;6.13;;;3.80;;
69890;SDS011;57170;43.964;21.262;2024-03-02T04:20:52;6.10;;;4.13;;
69890;SDS011;57170;43.964;21.262;2024-03-02T04:23:18;6.50;;;4.03;;
69890;SDS011;57170;43.964;21.262;2024-03-02T04:25:44;5.15;;;3.63;;
69890;SDS011;57170;43.964;21.262;2024-03-02T04:28:10;7.22;;;4.80;;
69890;SDS011;57170;43.964;21.262;2024-03-02T04:30:37;5.75;;;4.38;;
69890;SDS011;57170;43.964;21.262;2024-03-02T04:33:04;5.70;;;4.22;;
69890;SDS011;57170;43.964;21.262;2024-03-02T04:35:32;4.97;;;3.38;;
69890;SDS011;57170;43.964;21.262;2024-03-02T04:37:58;6.10;;;4.05;;
69890;SDS011;57170;43.964;21.262;2024-03-02T04:40:24;7.50;;;5.05;;
69890;SDS011;57170;43.964;21.262;2024-03-02T04:42:50;7.45;;;4.18;;
69890;SDS011;57170;43.964;21.262;2024-03-02T04:45:16;6.43;;;4.47;;
69890;SDS011;57170;43.964;21.262;2024-03-02T04:47:43;6.78;;;4.70;;
69890;SDS011;57170;43.964;21.262;2024-03-02T04:50:09;6.45;;;5.00;;
69890;SDS011;57170;43.964;21.262;2024-03-02T04:52:35;7.55;;;4.25;;
69890;SDS011;57170;43.964;21.262;2024-03-02T04:55:01;7.50;;;4.60;;
69890;SDS011;57170;43.964;21.262;2024-03-02T04:57:46;5.85;;;4.03;;
69890;SDS011;57170;43.964;21.262;2024-03-02T05:00:13;5.40;;;3.92;;
69890;SDS011;57170;43.964;21.262;2024-03-02T05:02:39;5.80;;;3.83;;
69890;SDS011;57170;43.964;21.262;2024-03-02T05:05:05;7.15;;;4.90;;
69890;SDS011;57170;43.964;21.262;2024-03-02T05:07:31;8.77;;;6.03;;
69890;SDS011;57170;43.964;21.262;2024-03-02T05:09:57;9.55;;;5.53;;
69890;SDS011;57170;43.964;21.262;2024-03-02T05:12:24;8.70;;;5.93;;
69890;SDS011;57170;43.964;21.262;2024-03-02T05:15:11;9.95;;;7.32;;
69890;SDS011;57170;43.964;21.262;2024-03-02T05:17:38;10.88;;;7.30;;
69890;SDS011;57170;43.964;21.262;2024-03-02T05:20:04;9.65;;;6.38;;
69890;SDS011;57170;43.964;21.262;2024-03-02T05:22:31;7.63;;;5.60;;
69890;SDS011;57170;43.964;21.262;2024-03-02T05:24:58;6.40;;;4.60;;
69890;SDS011;57170;43.964;21.262;2024-03-02T05:27:29;5.22;;;4.03;;
69890;SDS011;57170;43.964;21.262;2024-03-02T05:29:56;6.85;;;4.68;;
69890;SDS011;57170;43.964;21.262;2024-03-02T05:32:23;6.22;;;4.45;;
69890;SDS011;57170;43.964;21.262;2024-03-02T05:34:49;7.03;;;4.40;;
69890;SDS011;57170;43.964;21.262;2024-03-02T05:37:18;7.20;;;4.28;;
69890;SDS011;57170;43.964;21.262;2024-03-02T05:39:45;5.93;;;4.43;;
69890;SDS011;57170;43.964;21.262;2024-03-02T05:42:11;6.22;;;4.25;;
69890;SDS011;57170;43.964;21.262;2024-03-02T05:44:37;8.18;;;4.65;;
69890;SDS011;57170;43.964;21.262;2024-03-02T05:47:03;7.07;;;3.90;;
69890;SDS011;57170;43.964;21.262;2024-03-02T05:49:29;5.32;;;3.67;;
69890;SDS011;57170;43.964;21.262;2024-03-02T05:51:56;6.60;;;4.18;;
69890;SDS011;57170;43.964;21.262;2024-03-02T05:54:22;5.32;;;4.00;;
69890;SDS011;57170;43.964;21.262;2024-03-02T05:56:48;5.18;;;3.97;;
69890;SDS011;57170;43.964;21.262;2024-03-02T05:59:14;5.82;;;3.92;;
69890;SDS011;57170;43.964;21.262;2024-03-02T06:01:43;5.43;;;4.38;;
69890;SDS011;57170;43.964;21.262;2024-03-02T06:04:09;6.35;;;4.05;;
69890;SDS011;57170;43.964;21.262;2024-03-02T06:06:36;5.93;;;3.72;;
69890;SDS011;57170;43.964;21.262;2024-03-02T06:09:02;4.45;;;3.95;;
69890;SDS011;57170;43.964;21.262;2024-03-02T06:11:38;6.97;;;4.57;;
69890;SDS011;57170;43.964;21.262;2024-03-02T06:14:05;5.43;;;3.30;;
69890;SDS011;57170;43.964;21.262;2024-03-02T06:16:32;5.75;;;4.25;;
69890;SDS011;57170;43.964;21.262;2024-03-02T06:18:58;5.80;;;4.28;;
69890;SDS011;57170;43.964;21.262;2024-03-02T06:21:24;5.47;;;3.85;;
69890;SDS011;57170;43.964;21.262;2024-03-02T06:23:51;5.47;;;3.88;;
69890;SDS011;57170;43.964;21.262;2024-03-02T06:26:17;4.50;;;3.10;;
69890;SDS011;57170;43.964;21.262;2024-03-02T06:28:43;4.82;;;2.50;;
69890;SDS011;57170;43.964;21.262;2024-03-02T06:31:10;4.40;;;2.72;;
69890;SDS011;57170;43.964;21.262;2024-03-02T06:33:36;4.85;;;3.30;;
69890;SDS011;57170;43.964;21.262;2024-03-02T06:36:02;4.80;;;3.10;;
69890;SDS011;57170;43.964;21.262;2024-03-02T06:38:29;4.80;;;3.00;;
69890;SDS011;57170;43.964;21.262;2024-03-02T06:40:57;4.18;;;2.45;;
69890;SDS011;57170;43.964;21.262;2024-03-02T06:43:23;4.68;;;2.80;;
69890;SDS011;57170;43.964;21.262;2024-03-02T06:45:50;3.22;;;2.42;;
69890;SDS011;57170;43.964;21.262;2024-03-02T06:48:17;3.30;;;2.35;;
69890;SDS011;57170;43.964;21.262;2024-03-02T06:50:48;3.20;;;2.10;;
69890;SDS011;57170;43.964;21.262;2024-03-02T06:53:14;4.15;;;2.88;;
69890;SDS011;57170;43.964;21.262;2024-03-02T06:55:45;9.05;;;5.88;;
69890;SDS011;57170;43.964;21.262;2024-03-02T06:58:12;6.13;;;4.45;;
69890;SDS011;57170;43.964;21.262;2024-03-02T07:00:40;9.70;;;5.35;;
69890;SDS011;57170;43.964;21.262;2024-03-02T07:03:06;6.30;;;3.28;;
69890;SDS011;57170;43.964;21.262;2024-03-02T07:05:32;4.53;;;2.90;;
69890;SDS011;57170;43.964;21.262;2024-03-02T07:07:58;5.90;;;3.20;;
69890;SDS011;57170;43.964;21.262;2024-03-02T07:10:24;4.28;;;2.80;;
69890;SDS011;57170;43.964;21.262;2024-03-02T07:12:50;3.72;;;2.40;;
69890;SDS011;57170;43.964;21.262;2024-03-02T07:15:16;4.20;;;2.63;;
69890;SDS011;57170;43.964;21.262;2024-03-02T07:17:52;5.10;;;2.70;;
69890;SDS011;57170;43.964;21.262;2024-03-02T07:20:18;3.83;;;2.78;;
69890;SDS011;57170;43.964;21.262;2024-03-02T07:22:44;4.10;;;2.90;;
69890;SDS011;57170;43.964;21.262;2024-03-02T07:25:10;3.50;;;2.40;;
69890;SDS011;57170;43.964;21.262;2024-03-02T07:27:36;4.45;;;2.97;;
69890;SDS011;57170;43.964;21.262;2024-03-02T07:30:03;4.53;;;3.25;;
69890;SDS011;57170;43.964;21.262;2024-03-02T07:32:29;5.63;;;2.67;;
69890;SDS011;57170;43.964;21.262;2024-03-02T07:34:55;5.03;;;3.55;;
69890;SDS011;57170;43.964;21.262;2024-03-02T07:37:22;5.00;;;3.38;;
69890;SDS011;57170;43.964;21.262;2024-03-02T07:39:48;5.15;;;3.20;;
69890;SDS011;57170;43.964;21.262;2024-03-02T07:42:14;7.40;;;4.18;;
69890;SDS011;57170;43.964;21.262;2024-03-02T07:44:41;4.72;;;2.80;;
69890;SDS011;57170;43.964;21.262;2024-03-02T07:47:07;5.53;;;3.42;;
69890;SDS011;57170;43.964;21.262;2024-03-02T07:49:33;5.30;;;3.35;;
69890;SDS011;57170;43.964;21.262;2024-03-02T07:52:00;6.80;;;3.53;;
69890;SDS011;57170;43.964;21.262;2024-03-02T07:54:26;5.00;;;2.70;;
69890;SDS011;57170;43.964;21.262;2024-03-02T07:56:52;6.07;;;3.78;;
69890;SDS011;57170;43.964;21.262;2024-03-02T07:59:18;4.05;;;2.47;;
69890;SDS011;57170;43.964;21.262;2024-03-02T08:01:45;3.92;;;2.58;;
69890;SDS011;57170;43.964;21.262;2024-03-02T08:04:12;4.55;;;2.72;;
69890;SDS011;57170;43.964;21.262;2024-03-02T08:06:39;4.18;;;2.50;;
69890;SDS011;57170;43.964;21.262;2024-03-02T08:09:05;4.00;;;2.78;;
69890;SDS011;57170;43.964;21.262;2024-03-02T08:11:35;8.43;;;3.30;;
69890;SDS011;57170;43.964;21.262;2024-03-02T08:14:01;6.80;;;3.15;;
69890;SDS011;57170;43.964;21.262;2024-03-02T08:16:27;5.97;;;3.75;;
69890;SDS011;57170;43.964;21.262;2024-03-02T08:18:53;4.82;;;3.10;;
69890;SDS011;57170;43.964;21.262;2024-03-02T08:21:19;4.13;;;2.65;;
69890;SDS011;57170;43.964;21.262;2024-03-02T08:23:46;4.43;;;3.13;;
69890;SDS011;57170;43.964;21.262;2024-03-02T08:26:12;6.20;;;3.80;;
69890;SDS011;57170;43.964;21.262;2024-03-02T08:28:38;6.70;;;4.15;;
69890;SDS011;57170;43.964;21.262;2024-03-02T08:31:05;5.00;;;3.40;;
69890;SDS011;57170;43.964;21.262;2024-03-02T08:33:32;6.20;;;4.25;;
69890;SDS011;57170;43.964;21.262;2024-03-02T08:35:59;6.03;;;3.55;;
69890;SDS011;57170;43.964;21.262;2024-03-02T08:38:25;4.85;;;3.95;;
69890;SDS011;57170;43.964;21.262;2024-03-02T08:40:51;6.93;;;4.55;;
69890;SDS011;57170;43.964;21.262;2024-03-02T08:43:18;5.30;;;3.72;;
69890;SDS011;57170;43.964;21.262;2024-03-02T08:45:44;5.95;;;4.15;;
69890;SDS011;57170;43.964;21.262;2024-03-02T08:48:12;7.40;;;4.32;;
69890;SDS011;57170;43.964;21.262;2024-03-02T08:50:38;5.60;;;4.07;;
69890;SDS011;57170;43.964;21.262;2024-03-02T08:53:04;6.22;;;4.00;;
69890;SDS011;57170;43.964;21.262;2024-03-02T08:55:30;8.13;;;5.00;;
69890;SDS011;57170;43.964;21.262;2024-03-02T08:57:57;7.32;;;5.32;;
69890;SDS011;57170;43.964;21.262;2024-03-02T09:00:23;6.28;;;5.40;;
69890;SDS011;57170;43.964;21.262;2024-03-02T09:02:49;6.50;;;4.60;;
69890;SDS011;57170;43.964;21.262;2024-03-02T09:05:15;4.43;;;3.25;;
69890;SDS011;57170;43.964;21.262;2024-03-02T09:07:41;4.75;;;3.47;;
69890;SDS011;57170;43.964;21.262;2024-03-02T09:10:08;5.03;;;4.00;;
69890;SDS011;57170;43.964;21.262;2024-03-02T09:12:34;5.70;;;4.10;;
69890;SDS011;57170;43.964;21.262;2024-03-02T09:15:01;4.85;;;3.00;;
69890;SDS011;57170;43.964;21.262;2024-03-02T09:17:31;4.45;;;3.35;;
69890;SDS011;57170;43.964;21.262;2024-03-02T09:19:57;5.78;;;4.15;;
69890;SDS011;57170;43.964;21.262;2024-03-02T09:22:25;5.95;;;3.90;;
69890;SDS011;57170;43.964;21.262;2024-03-02T09:24:51;5.40;;;4.05;;
69890;SDS011;57170;43.964;21.262;2024-03-02T09:27:17;5.97;;;4.00;;
69890;SDS011;57170;43.964;21.262;2024-03-02T09:29:44;8.35;;;4.40;;
69890;SDS011;57170;43.964;21.262;2024-03-02T09:32:12;7.05;;;4.63;;
69890;SDS011;57170;43.964;21.262;2024-03-02T09:34:39;6.57;;;4.43;;
69890;SDS011;57170;43.964;21.262;2024-03-02T09:37:05;4.70;;;3.58;;
69890;SDS011;57170;43.964;21.262;2024-03-02T09:39:32;5.43;;;4.07;;
69890;SDS011;57170;43.964;21.262;2024-03-02T09:41:58;4.80;;;3.58;;
69890;SDS011;57170;43.964;21.262;2024-03-02T09:44:25;4.50;;;3.92;;
69890;SDS011;57170;43.964;21.262;2024-03-02T09:46:52;4.68;;;3.53;;
69890;SDS011;57170;43.964;21.262;2024-03-02T09:49:18;5.80;;;4.35;;
69890;SDS011;57170;43.964;21.262;2024-03-02T09:51:47;6.78;;;5.22;;
69890;SDS011;57170;43.964;21.262;2024-03-02T09:54:15;8.07;;;4.85;;
69890;SDS011;57170;43.964;21.262;2024-03-02T09:56:41;6.47;;;5.07;;
69890;SDS011;57170;43.964;21.262;2024-03-02T09:59:07;7.03;;;5.20;;
69890;SDS011;57170;43.964;21.262;2024-03-02T10:01:33;7.78;;;5.45;;
69890;SDS011;57170;43.964;21.262;2024-03-02T10:04:00;5.95;;;4.53;;
69890;SDS011;57170;43.964;21.262;2024-03-02T10:06:27;7.40;;;5.40;;
69890;SDS011;57170;43.964;21.262;2024-03-02T10:08:54;6.43;;;5.65;;
69890;SDS011;57170;43.964;21.262;2024-03-02T10:14:12;6.60;;;5.20;;
69890;SDS011;57170;43.964;21.262;2024-03-02T10:16:39;10.18;;;7.03;;
69890;SDS011;57170;43.964;21.262;2024-03-02T10:19:21;10.13;;;6.93;;
69890;SDS011;57170;43.964;21.262;2024-03-02T10:21:48;8.57;;;6.75;;
69890;SDS011;57170;43.964;21.262;2024-03-02T10:24:14;10.45;;;8.75;;
69890;SDS011;57170;43.964;21.262;2024-03-02T10:26:41;10.00;;;8.48;;
69890;SDS011;57170;43.964;21.262;2024-03-02T10:29:10;10.10;;;7.55;;
69890;SDS011;57170;43.964;21.262;2024-03-02T10:31:40;8.75;;;7.10;;
69890;SDS011;57170;43.964;21.262;2024-03-02T10:34:07;9.50;;;6.82;;
69890;SDS011;57170;43.964;21.262;2024-03-02T10:36:34;9.60;;;7.35;;
69890;SDS011;57170;43.964;21.262;2024-03-02T10:39:05;8.77;;;7.00;;
69890;SDS011;57170;43.964;21.262;2024-03-02T10:41:32;8.63;;;6.05;;
69890;SDS011;57170;43.964;21.262;2024-03-02T10:43:59;9.23;;;6.60;;
69890;SDS011;57170;43.964;21.262;2024-03-02T10:46:28;8.35;;;6.80;;
69890;SDS011;57170;43.964;21.262;2024-03-02T10:48:56;10.90;;;7.50;;
69890;SDS011;57170;43.964;21.262;2024-03-02T10:51:24;9.77;;;6.80;;
69890;SDS011;57170;43.964;21.262;2024-03-02T10:53:51;8.00;;;6.65;;
69890;SDS011;57170;43.964;21.262;2024-03-02T10:56:20;8.32;;;6.50;;
69890;SDS011;57170;43.964;21.262;2024-03-02T10:58:49;8.85;;;6.40;;
69890;SDS011;57170;43.964;21.262;2024-03-02T11:01:16;10.70;;;7.43;;
69890;SDS011;57170;43.964;21.262;2024-03-02T11:03:43;9.55;;;6.43;;
69890;SDS011;57170;43.964;21.262;2024-03-02T11:06:10;8.38;;;6.30;;
69890;SDS011;57170;43.964;21.262;2024-03-02T11:08:37;6.95;;;5.78;;
69890;SDS011;57170;43.964;21.262;2024-03-02T11:11:10;7.28;;;5.88;;
69890;SDS011;57170;43.964;21.262;2024-03-02T11:13:38;6.68;;;4.70;;
69890;SDS011;57170;43.964;21.262;2024-03-02T11:16:12;8.90;;;5.57;;
69890;SDS011;57170;43.964;21.262;2024-03-02T11:18:38;7.10;;;5.03;;
69890;SDS011;57170;43.964;21.262;2024-03-02T11:21:05;7.07;;;5.45;;
69890;SDS011;57170;43.964;21.262;2024-03-02T11:23:32;8.25;;;6.53;;
69890;SDS011;57170;43.964;21.262;2024-03-02T11:26:20;7.90;;;4.82;;
69890;SDS011;57170;43.964;21.262;2024-03-02T11:28:46;6.70;;;4.38;;
69890;SDS011;57170;43.964;21.262;2024-03-02T11:31:12;8.07;;;4.90;;
69890;SDS011;57170;43.964;21.262;2024-03-02T11:33:39;9.80;;;7.25;;
69890;SDS011;57170;43.964;21.262;2024-03-02T11:36:08;8.45;;;6.28;;
69890;SDS011;57170;43.964;21.262;2024-03-02T11:38:35;10.93;;;7.38;;
69890;SDS011;57170;43.964;21.262;2024-03-02T11:41:07;8.10;;;6.32;;
69890;SDS011;57170;43.964;21.262;2024-03-02T11:43:36;9.03;;;6.80;;
69890;SDS011;57170;43.964;21.262;2024-03-02T11:46:04;9.35;;;5.72;;
69890;SDS011;57170;43.964;21.262;2024-03-02T11:48:38;6.60;;;5.00;;
69890;SDS011;57170;43.964;21.262;2024-03-02T11:51:05;6.35;;;4.50;;
69890;SDS011;57170;43.964;21.262;2024-03-02T11:53:31;9.02;;;5.72;;
69890;SDS011;57170;43.964;21.262;2024-03-02T11:55:58;7.35;;;6.35;;
69890;SDS011;57170;43.964;21.262;2024-03-02T11:58:24;8.90;;;5.40;;
69890;SDS011;57170;43.964;21.262;2024-03-02T12:00:52;8.50;;;6.32;;
69890;SDS011;57170;43.964;21.262;2024-03-02T12:03:18;6.65;;;5.57;;
69890;SDS011;57170;43.964;21.262;2024-03-02T12:05:48;8.68;;;6.43;;
69890;SDS011;57170;43.964;21.262;2024-03-02T12:08:14;7.88;;;5.63;;
69890;SDS011;57170;43.964;21.262;2024-03-02T12:10:40;7.22;;;5.75;;
69890;SDS011;57170;43.964;21.262;2024-03-02T12:13:06;7.38;;;5.45;;
69890;SDS011;57170;43.964;21.262;2024-03-02T12:15:36;8.88;;;5.30;;
69890;SDS011;57170;43.964;21.262;2024-03-02T12:18:02;8.65;;;5.47;;
69890;SDS011;57170;43.964;21.262;2024-03-02T12:20:29;8.23;;;5.85;;
69890;SDS011;57170;43.964;21.262;2024-03-02T12:22:57;9.95;;;5.85;;
69890;SDS011;57170;43.964;21.262;2024-03-02T12:25:23;9.32;;;5.20;;
69890;SDS011;57170;43.964;21.262;2024-03-02T12:27:51;7.32;;;5.05;;
69890;SDS011;57170;43.964;21.262;2024-03-02T12:30:17;7.82;;;5.85;;
69890;SDS011;57170;43.964;21.262;2024-03-02T12:32:44;7.22;;;5.75;;
69890;SDS011;57170;43.964;21.262;2024-03-02T12:35:10;8.40;;;5.38;;
69890;SDS011;57170;43.964;21.262;2024-03-02T12:37:46;8.15;;;5.35;;
69890;SDS011;57170;43.964;21.262;2024-03-02T12:40:13;6.72;;;5.18;;
69890;SDS011;57170;43.964;21.262;2024-03-02T12:42:39;5.90;;;5.07;;
69890;SDS011;57170;43.964;21.262;2024-03-02T12:45:09;6.75;;;4.90;;
69890;SDS011;57170;43.964;21.262;2024-03-02T12:47:35;7.15;;;5.35;;
69890;SDS011;57170;43.964;21.262;2024-03-02T12:50:01;8.70;;;5.80;;
69890;SDS011;57170;43.964;21.262;2024-03-02T12:52:28;7.32;;;5.50;;
69890;SDS011;57170;43.964;21.262;2024-03-02T12:54:54;6.22;;;5.30;;
69890;SDS011;57170;43.964;21.262;2024-03-02T12:57:26;7.80;;;6.22;;
69890;SDS011;57170;43.964;21.262;2024-03-02T12:59:56;6.25;;;4.97;;
69890;SDS011;57170;43.964;21.262;2024-03-02T13:02:22;9.07;;;6.00;;
69890;SDS011;57170;43.964;21.262;2024-03-02T13:04:54;8.52;;;6.57;;
69890;SDS011;57170;43.964;21.262;2024-03-02T13:07:21;6.88;;;5.28;;
69890;SDS011;57170;43.964;21.262;2024-03-02T13:09:49;7.05;;;5.45;;
69890;SDS011;57170;43.964;21.262;2024-03-02T13:12:15;7.72;;;5.80;;
69890;SDS011;57170;43.964;21.262;2024-03-02T13:14:42;9.30;;;5.97;;
69890;SDS011;57170;43.964;21.262;2024-03-02T13:17:08;9.32;;;5.50;;
69890;SDS011;57170;43.964;21.262;2024-03-02T13:19:35;7.07;;;5.38;;
69890;SDS011;57170;43.964;21.262;2024-03-02T13:22:01;6.55;;;5.18;;
69890;SDS011;57170;43.964;21.262;2024-03-02T13:24:29;7.38;;;5.45;;
69890;SDS011;57170;43.964;21.262;2024-03-02T13:26:55;7.88;;;4.63;;
69890;SDS011;57170;43.964;21.262;2024-03-02T13:29:23;7.90;;;4.65;;
69890;SDS011;57170;43.964;21.262;2024-03-02T13:31:49;7.63;;;5.25;;
69890;SDS011;57170;43.964;21.262;2024-03-02T13:34:16;6.53;;;5.38;;
69890;SDS011;57170;43.964;21.262;2024-03-02T13:36:42;7.43;;;5.40;;
69890;SDS011;57170;43.964;21.262;2024-03-02T13:39:08;6.80;;;5.10;;
69890;SDS011;57170;43.964;21.262;2024-03-02T13:41:35;8.60;;;5.18;;
69890;SDS011;57170;43.964;21.262;2024-03-02T13:44:02;7.78;;;5.18;;
69890;SDS011;57170;43.964;21.262;2024-03-02T13:46:28;8.50;;;5.63;;
69890;SDS011;57170;43.964;21.262;2024-03-02T13:48:54;6.65;;;5.20;;
69890;SDS011;57170;43.964;21.262;2024-03-02T13:51:21;7.72;;;5.38;;
69890;SDS011;57170;43.964;21.262;2024-03-02T13:53:47;6.70;;;5.15;;
69890;SDS011;57170;43.964;21.262;2024-03-02T13:56:13;7.22;;;5.13;;
69890;SDS011;57170;43.964;21.262;2024-03-02T13:58:39;5.90;;;4.85;;
69890;SDS011;57170;43.964;21.262;2024-03-02T14:01:05;7.38;;;5.15;;
69890;SDS011;57170;43.964;21.262;2024-03-02T14:03:31;7.72;;;5.10;;
69890;SDS011;57170;43.964;21.262;2024-03-02T14:05:57;7.03;;;5.53;;
69890;SDS011;57170;43.964;21.262;2024-03-02T14:08:24;6.80;;;5.25;;
69890;SDS011;57170;43.964;21.262;2024-03-02T14:10:50;6.75;;;5.78;;
69890;SDS011;57170;43.964;21.262;2024-03-02T14:13:16;7.40;;;5.07;;
69890;SDS011;57170;43.964;21.262;2024-03-02T14:15:42;6.78;;;5.53;;
69890;SDS011;57170;43.964;21.262;2024-03-02T14:18:08;5.95;;;5.30;;
69890;SDS011;57170;43.964;21.262;2024-03-02T14:20:35;7.18;;;5.25;;
69890;SDS011;57170;43.964;21.262;2024-03-02T14:23:02;5.53;;;4.55;;
69890;SDS011;57170;43.964;21.262;2024-03-02T14:25:29;6.28;;;4.97;;
69890;SDS011;57170;43.964;21.262;2024-03-02T14:27:58;6.18;;;4.95;;
69890;SDS011;57170;43.964;21.262;2024-03-02T14:30:24;6.35;;;5.53;;
69890;SDS011;57170;43.964;21.262;2024-03-02T14:32:50;8.00;;;5.60;;
69890;SDS011;57170;43.964;21.262;2024-03-02T14:35:16;6.50;;;5.32;;
69890;SDS011;57170;43.964;21.262;2024-03-02T14:37:43;8.85;;;5.60;;